Airport View

Enter AWOS ICAO identifier for current METAR.

ex. KFNL

KFOD 220056Z AUTO 09005KT 10SM FEW110 M08/M11 A3062 RMK AO2 SLP424 T10831111 FZRANO

22 Feb 2018 01:11

Frequency: 118.775

Phone: 515-955-5490

Other Area AWOS: KEBS - KCAV - KAXA - KBNW

TAF KFOD 212338Z 2200/2224 VRB04KT P6SM BKN150 FM220900 08005KT P6SM OVC060 FM221300 09005KT 6SM -SN OVC035 FM221700 10009KT 5SM -FZRASN OVC011 FM222000 11009KT 3SM -FZDZ OVC007 FM222200 12009KT 1 1/2SM -SN OVC006